Terminal Aerodrome Forecast
Issued by NWS

Home | Current Version | Previous Version | Text Only | Print | Product List | Glossary On
Versions: 1 2 3 4 5 6 7 8 9 10 11 12 13 14 15 16 17
000
FTUS45 KTFX 110541
TAFHLN
TAF
KHLN 110541Z 1106/1206 VRB03KT P6SM SCT150
     FM111300 VRB03KT P6SM VCFG SCT120
     FM111700 VRB03KT P6SM SCT150=

USA.gov is the U.S. government's official web portal to all federal, state and local government web resources and services.